createdAt,value
2023-12-08T00:01:16.097Z,11.38
2023-12-08T00:11:18.819Z,10.98
2023-12-08T00:21:24.512Z,10.55
2023-12-08T00:31:27.422Z,11.15
2023-12-08T00:41:31.543Z,9.32
2023-12-08T00:51:34.349Z,9.60
2023-12-08T01:01:38.593Z,9.32
2023-12-08T01:11:41.357Z,8.93
2023-12-08T01:21:45.493Z,9.82
2023-12-08T01:31:48.249Z,9.00
2023-12-08T01:41:53.424Z,8.48
2023-12-08T01:51:56.278Z,7.57
2023-12-08T02:02:00.579Z,9.30
2023-12-08T02:12:03.911Z,8.05
2023-12-08T02:22:09.146Z,5.78
2023-12-08T02:32:19.989Z,7.15
2023-12-08T02:42:22.906Z,6.90
2023-12-08T02:52:27.046Z,6.57
2023-12-08T03:02:29.844Z,7.65
2023-12-08T03:12:34.396Z,7.50
2023-12-08T03:22:37.177Z,7.00
2023-12-08T03:32:41.368Z,7.30
2023-12-08T03:42:44.169Z,6.88
2023-12-08T03:52:54.020Z,7.30
2023-12-08T04:02:56.846Z,6.87
2023-12-08T04:13:01.248Z,9.05
2023-12-08T04:23:06.220Z,6.15
2023-12-08T04:33:10.911Z,6.95
2023-12-08T04:43:13.868Z,7.03
2023-12-08T04:53:17.933Z,7.97
2023-12-08T05:03:20.888Z,7.90
2023-12-08T05:13:25.149Z,8.40
2023-12-08T05:23:27.890Z,7.78
2023-12-08T05:33:32.321Z,8.00
2023-12-08T05:43:35.267Z,7.57
2023-12-08T05:53:40.999Z,8.27
2023-12-08T06:03:43.940Z,8.95
2023-12-08T06:13:48.033Z,9.27
2023-12-08T06:23:50.839Z,7.40
2023-12-08T06:34:05.632Z,7.80
2023-12-08T06:44:16.284Z,8.32
2023-12-08T06:54:20.705Z,9.68
2023-12-08T07:04:23.698Z,9.55
2023-12-08T07:14:27.951Z,9.57
2023-12-08T07:24:31.989Z,8.00
2023-12-08T07:34:36.104Z,8.02
2023-12-08T07:44:38.897Z,9.93
2023-12-08T07:54:43.121Z,11.48
2023-12-08T08:04:45.931Z,10.02
2023-12-08T08:14:50.096Z,8.52
2023-12-08T08:24:53.079Z,10.80
2023-12-08T08:34:58.219Z,9.18
2023-12-08T08:45:01.267Z,9.43
2023-12-08T08:55:06.979Z,8.90
2023-12-08T09:05:10.240Z,9.23
2023-12-08T09:15:14.835Z,10.38
2023-12-08T09:25:19.041Z,11.63
2023-12-08T09:35:23.222Z,11.25
2023-12-08T09:45:26.421Z,12.82
2023-12-08T09:55:31.797Z,11.35
2023-12-08T10:05:34.814Z,13.05
2023-12-08T10:15:43.738Z,11.68
2023-12-08T10:25:48.633Z,11.80
2023-12-08T10:35:53.264Z,11.43
2023-12-08T10:45:56.683Z,11.35
2023-12-08T10:56:05.279Z,12.27
2023-12-08T11:06:10.375Z,12.57
2023-12-08T11:16:28.355Z,10.43
2023-12-08T11:26:41.909Z,11.07
2023-12-08T11:36:47.084Z,12.48
2023-12-08T11:46:53.733Z,12.52
2023-12-08T11:56:57.807Z,13.05
2023-12-08T12:07:00.671Z,12.50
2023-12-08T12:17:05.220Z,12.95
2023-12-08T12:27:07.965Z,12.85
2023-12-08T12:37:12.308Z,11.45
2023-12-08T12:47:15.935Z,13.95
2023-12-08T12:57:20.386Z,11.85
2023-12-08T13:07:23.372Z,12.50
2023-12-08T13:17:28.146Z,11.95
2023-12-08T13:27:32.911Z,11.05
2023-12-08T13:37:38.008Z,11.30
2023-12-08T13:47:40.867Z,10.93
2023-12-08T13:57:44.988Z,14.43
2023-12-08T14:07:48.814Z,14.55
2023-12-08T14:17:53.033Z,11.77
2023-12-08T14:27:56.172Z,14.70
2023-12-08T14:38:00.275Z,14.68
2023-12-08T14:48:04.478Z,12.07
2023-12-08T14:58:09.233Z,13.75
2023-12-08T15:08:11.975Z,14.20
2023-12-08T15:18:16.405Z,14.60
2023-12-08T15:28:19.433Z,17.83
2023-12-08T15:38:23.499Z,17.55
2023-12-08T15:48:26.619Z,17.55
2023-12-08T15:58:30.820Z,20.70
2023-12-08T16:08:33.547Z,16.65
2023-12-08T16:18:37.847Z,16.98
2023-12-08T16:28:40.688Z,15.50
2023-12-08T16:38:45.239Z,15.40
2023-12-08T16:48:48.256Z,15.75
2023-12-08T16:58:52.463Z,19.77
2023-12-08T17:08:55.238Z,18.63
2023-12-08T17:18:59.696Z,16.58
2023-12-08T17:29:02.505Z,22.75
2023-12-08T17:39:06.863Z,21.30
2023-12-08T17:49:09.965Z,21.70
2023-12-08T17:59:14.215Z,18.80
2023-12-08T18:09:16.950Z,16.17
2023-12-08T18:19:21.297Z,17.30
2023-12-08T18:29:24.157Z,19.30
2023-12-08T18:39:28.308Z,20.50
2023-12-08T18:49:31.146Z,21.25
2023-12-08T18:59:35.786Z,19.17
2023-12-08T19:09:38.573Z,21.48
2023-12-08T19:19:42.778Z,20.50
2023-12-08T19:29:45.579Z,18.60
2023-12-08T19:39:49.722Z,19.10
2023-12-08T19:49:52.532Z,23.15
2023-12-08T19:59:57.993Z,18.38
2023-12-08T20:10:00.799Z,21.38
2023-12-08T20:20:05.955Z,22.92
2023-12-08T20:30:10.475Z,22.60
2023-12-08T20:40:14.878Z,23.58
2023-12-08T20:50:18.632Z,29.52
2023-12-08T21:00:23.213Z,22.33
2023-12-08T21:10:25.980Z,22.45
2023-12-08T21:20:30.054Z,21.55
2023-12-08T21:30:32.832Z,21.38
2023-12-08T21:40:36.995Z,21.40
2023-12-08T21:50:40.045Z,22.50
2023-12-08T22:00:45.156Z,20.17
2023-12-08T22:10:48.127Z,22.33
2023-12-08T22:20:52.273Z,21.92
2023-12-08T22:30:55.058Z,20.63
2023-12-08T22:40:59.326Z,20.42
2023-12-08T22:51:07.713Z,19.50
2023-12-08T23:01:18.767Z,20.42
2023-12-08T23:11:22.735Z,20.33
2023-12-08T23:21:27.841Z,20.70
2023-12-08T23:31:30.821Z,18.45
2023-12-08T23:41:35.205Z,18.83
2023-12-08T23:51:38.234Z,19.08
